Time;durP1;ratioP1;P1;durP2;ratioP2;P2;SDS_P1;SDS_P2;PMS_P1;PMS_P2;Temp;Humidity;BMP_temperature;BMP_pressure;BME280_temperature;BME280_humidity;BME280_pressure;Samples;Min_cycle;Max_cycle;Signal;HPM_P1;HPM_P2
2022/12/27 00:01:13;;;;;;;33.38;16.02;;;;;;;3.74;84.65;100565.84;5070351;28;20032;-42
2022/12/27 00:03:39;;;;;;;31.63;17.08;;;;;;;3.74;84.30;100557.94;5070565;28;20036;-42
2022/12/27 00:06:10;;;;;;;33.15;16.98;;;;;;;3.78;83.43;100563.75;5070722;28;20028;-43
2022/12/27 00:08:36;;;;;;;36.42;17.15;;;;;;;3.69;84.23;100563.63;5070411;28;20154;-41
2022/12/27 00:11:13;;;;;;;35.10;17.83;;;;;;;3.79;83.82;100562.78;5070458;28;20066;-41
2022/12/27 00:13:38;;;;;;;33.92;17.50;;;;;;;3.83;83.52;100559.75;5070614;28;20029;-42
2022/12/27 00:16:06;;;;;;;37.08;17.48;;;;;;;3.79;83.42;100561.00;5070494;28;20056;-41
2022/12/27 00:18:32;;;;;;;35.42;17.38;;;;;;;3.79;83.29;100557.50;5070117;28;20045;-41
2022/12/27 00:20:59;;;;;;;32.17;16.73;;;;;;;3.61;83.75;100554.75;5070271;28;20031;-41
2022/12/27 00:23:26;;;;;;;31.67;15.60;;;;;;;3.64;83.64;100554.50;5070245;28;20032;-42
2022/12/27 00:25:51;;;;;;;34.90;16.63;;;;;;;3.59;84.22;100561.97;5070513;28;20174;-41
2022/12/27 00:28:17;;;;;;;30.48;15.50;;;;;;;3.55;83.93;100561.41;5070005;28;20489;-42
2022/12/27 00:30:42;;;;;;;33.72;17.00;;;;;;;3.62;83.41;100553.81;5070293;28;20477;-41
2022/12/27 00:33:08;;;;;;;29.50;15.88;;;;;;;3.50;84.05;100543.41;5070358;28;20100;-41
2022/12/27 00:35:33;;;;;;;30.20;15.00;;;;;;;3.50;84.19;100542.56;5069729;28;20440;-41
2022/12/27 00:37:59;;;;;;;32.35;14.95;;;;;;;3.40;84.23;100547.81;5069758;28;20020;-42
2022/12/27 00:40:24;;;;;;;27.40;14.30;;;;;;;3.43;84.90;100547.56;5070084;28;20016;-41
2022/12/27 00:42:50;;;;;;;27.08;14.60;;;;;;;3.36;84.76;100541.16;5069511;28;20042;-42
2022/12/27 00:45:15;;;;;;;30.25;13.98;;;;;;;3.49;84.91;100533.84;5069556;28;20024;-41
2022/12/27 00:47:40;;;;;;;27.95;14.65;;;;;;;3.64;84.18;100529.00;5069637;28;20032;-41
2022/12/27 00:50:06;;;;;;;28.23;14.77;;;;;;;3.58;84.15;100529.56;5069678;28;20024;-41
2022/12/27 00:52:31;;;;;;;25.10;14.40;;;;;;;3.42;84.27;100524.00;5069553;28;20078;-41
2022/12/27 00:54:57;;;;;;;24.95;14.48;;;;;;;3.13;84.79;100523.00;5069545;28;20044;-41
2022/12/27 00:57:22;;;;;;;28.65;14.82;;;;;;;3.23;85.74;100517.75;5069355;28;20453;-41
2022/12/27 00:59:48;;;;;;;27.52;14.75;;;;;;;3.32;85.34;100521.38;5069449;28;20115;-42
2022/12/27 01:02:13;;;;;;;29.67;14.82;;;;;;;3.36;84.53;100516.66;5069408;28;20116;-41
2022/12/27 01:04:38;;;;;;;26.25;14.45;;;;;;;3.29;84.20;100513.72;5069048;28;20111;-42
2022/12/27 01:07:04;;;;;;;31.10;15.45;;;;;;;3.13;85.42;100512.47;5069442;28;20020;-42
2022/12/27 01:09:29;;;;;;;27.77;14.85;;;;;;;3.04;85.43;100500.13;5069177;28;20021;-41
2022/12/27 01:11:55;;;;;;;30.80;15.25;;;;;;;2.88;86.15;100523.50;5069900;28;20021;-41
2022/12/27 01:14:20;;;;;;;29.75;16.25;;;;;;;3.17;85.66;100525.38;5069694;28;20114;-41
2022/12/27 01:16:46;;;;;;;30.25;15.45;;;;;;;3.28;84.84;100533.97;5069607;28;20177;-41
2022/12/27 01:19:11;;;;;;;29.70;14.85;;;;;;;3.23;85.46;100532.72;5069433;28;20088;-41
2022/12/27 01:21:37;;;;;;;26.60;15.05;;;;;;;3.18;84.63;100527.88;5069794;28;20096;-41
2022/12/27 01:24:04;;;;;;;27.15;14.98;;;;;;;3.30;84.23;100516.22;5069931;28;20545;-42
2022/12/27 01:26:30;;;;;;;29.80;14.95;;;;;;;3.14;84.61;100515.94;5070018;28;20036;-42
2022/12/27 01:28:55;;;;;;;27.17;15.02;;;;;;;3.06;85.59;100513.16;5069620;28;20020;-42
2022/12/27 01:31:29;;;;;;;28.55;15.27;;;;;;;3.13;85.21;100509.03;5070091;28;20025;-42
2022/12/27 01:33:57;;;;;;;27.55;14.77;;;;;;;3.07;85.73;100507.78;5069802;28;20024;-42
2022/12/27 01:36:25;;;;;;;29.20;15.25;;;;;;;3.10;84.87;100509.28;5069583;28;20106;-42
2022/12/27 01:38:51;;;;;;;26.10;15.20;;;;;;;3.13;84.22;100499.31;5069533;28;20025;-41
2022/12/27 01:44:38;;;;;;;31.20;16.23;;;;;;;2.79;85.98;100496.22;5069705;28;20040;-41
2022/12/27 01:47:18;;;;;;;34.15;16.83;;;;;;;2.88;84.16;100502.47;5069610;28;20522;-41
2022/12/27 01:50:06;;;;;;;33.05;16.58;;;;;;;2.64;84.85;100497.56;5069316;28;20116;-41
2022/12/27 01:52:37;;;;;;;35.30;16.75;;;;;;;2.61;84.96;100492.56;5069469;28;20063;-41
2022/12/27 01:55:11;;;;;;;34.63;17.05;;;;;;;2.56;85.87;100495.59;5067980;28;20370;-41
2022/12/27 01:57:37;;;;;;;34.13;17.27;;;;;;;2.50;86.54;100493.50;5069467;28;20040;-43
2022/12/27 02:00:03;;;;;;;29.77;16.42;;;;;;;2.45;86.21;100493.88;5070611;28;20374;-45
2022/12/27 02:02:29;;;;;;;39.13;17.15;;;;;;;2.39;85.44;100467.34;5069446;28;20028;-42
2022/12/27 02:04:54;;;;;;;35.05;17.30;;;;;;;2.84;85.98;100488.78;5069597;28;20479;-43
2022/12/27 02:07:26;;;;;;;33.95;17.40;;;;;;;2.67;84.60;100476.28;5069078;28;20670;-42
2022/12/27 02:09:56;;;;;;;34.85;17.73;;;;;;;2.61;84.95;100477.66;5068638;28;20052;-42
2022/12/27 02:12:21;;;;;;;;;;;;;;;2.27;86.15;100490.25;5069406;28;20405;-42
2022/12/27 02:14:48;;;;;;;29.77;15.25;;;;;;;2.23;85.99;100492.28;5068490;28;19966;-43
2022/12/27 02:17:24;;;;;;;34.92;16.92;;;;;;;2.20;86.10;100483.84;5072746;28;20040;-42
2022/12/27 02:20:08;;;;;;;31.88;17.02;;;;;;;2.30;86.75;100480.31;5072248;28;20113;-43
2022/12/27 02:26:28;;;;;;;31.23;16.33;;;;;;;2.52;86.94;100481.06;5073141;28;20031;-42
2022/12/27 02:29:02;;;;;;;29.40;15.75;;;;;;;2.56;85.97;100482.47;5072523;28;20024;-42
2022/12/27 02:31:40;;;;;;;35.03;16.35;;;;;;;2.56;86.33;100479.00;5071380;28;20028;-42
2022/12/27 02:34:13;;;;;;;31.83;16.52;;;;;;;2.76;86.52;100479.88;5072690;28;20621;-42
2022/12/27 02:36:41;;;;;;;37.95;18.15;;;;;;;3.07;85.10;100480.66;5072524;28;20036;-42
2022/12/27 02:39:07;;;;;;;35.67;16.95;;;;;;;3.04;85.67;100486.16;5072453;28;20517;-42
2022/12/27 02:59:35;;;;;;;30.45;16.27;;;;;;;2.64;86.52;100464.22;5054580;28;20051;-42
2022/12/27 03:05:22;;;;;;;27.98;15.07;;;;;;;2.49;87.00;100479.53;5072267;28;20086;-42
2022/12/27 03:08:03;;;;;;;28.80;14.85;;;;;;;2.53;87.54;100485.34;5071921;28;20025;-42
2022/12/27 03:16:54;;;;;;;29.27;15.23;;;;;;;2.87;85.89;100471.88;5052233;28;20043;-41
2022/12/27 03:33:11;;;;;;;29.40;14.75;;;;;;;2.35;85.95;100464.97;5051446;28;20369;-42
2022/12/27 03:33:15;;;;;;;27.30;14.73;;;;;;;2.23;86.69;100449.41;5051893;28;20392;-42
2022/12/27 03:38:50;;;;;;;30.17;15.82;;;;;;;1.88;87.28;100443.59;5051642;28;20079;-41
2022/12/27 03:44:24;;;;;;;29.77;15.68;;;;;;;1.69;87.99;100454.00;5051671;28;20464;-41
2022/12/27 03:47:04;;;;;;;28.80;14.70;;;;;;;1.88;87.13;100448.03;5051387;28;20020;-41
2022/12/27 03:49:38;;;;;;;33.20;15.90;;;;;;;2.32;85.59;100451.25;5051138;28;20024;-41
2022/12/27 03:52:24;;;;;;;36.25;16.23;;;;;;;2.18;85.85;100449.00;5051499;28;20052;-41
2022/12/27 03:54:51;;;;;;;28.83;15.27;;;;;;;2.07;85.65;100445.47;5051489;28;20357;-42
2022/12/27 03:57:21;;;;;;;30.10;15.70;;;;;;;2.04;85.34;100443.16;5051067;28;20079;-41
2022/12/27 03:59:46;;;;;;;32.13;15.55;;;;;;;2.07;87.38;100444.66;5050893;28;20053;-41
2022/12/27 04:02:12;;;;;;;30.08;16.15;;;;;;;2.41;85.64;100458.34;5050787;28;20508;-41
2022/12/27 04:04:37;;;;;;;26.63;16.40;;;;;;;2.28;85.91;100465.63;5056927;28;20557;-41
2022/12/27 04:07:04;;;;;;;29.70;16.23;;;;;;;2.20;85.65;100463.66;5070831;28;20032;-41
2022/12/27 04:36:51;;;;;;;29.73;15.07;;;;;;;2.82;79.58;100468.81;5070541;28;20047;-42
2022/12/27 04:39:16;;;;;;;27.20;14.13;;;;;;;2.90;77.25;100463.72;5069725;28;20473;-43
2022/12/27 04:55:32;;;;;;;33.95;16.52;;;;;;;3.08;75.38;100467.34;5070297;28;20036;-42
2022/12/27 04:57:58;;;;;;;34.17;16.17;;;;;;;3.26;75.84;100466.69;5069872;28;20021;-42
2022/12/27 05:03:22;;;;;;;28.55;14.63;;;;;;;2.95;76.85;100456.25;5070181;28;20139;-42
2022/12/27 05:05:50;;;;;;;26.55;14.45;;;;;;;2.80;78.39;100478.63;5069771;28;20085;-42
2022/12/27 05:13:59;;;;;;;25.83;13.13;;;;;;;2.99;77.57;100473.44;5069966;28;20475;-42
2022/12/27 05:16:38;;;;;;;24.90;13.48;;;;;;;3.05;76.56;100480.78;5070043;28;20465;-42
2022/12/27 05:19:06;;;;;;;26.92;12.98;;;;;;;2.99;77.31;100476.06;5069871;28;20072;-42
2022/12/27 05:21:36;;;;;;;25.55;13.20;;;;;;;2.53;79.21;100473.06;5069920;28;20059;-42
2022/12/27 05:26:46;;;;;;;27.08;14.02;;;;;;;2.12;81.56;100466.13;5070169;28;20043;-42
2022/12/27 05:29:11;;;;;;;29.75;14.27;;;;;;;2.52;79.33;100470.56;5069550;28;20016;-42
2022/12/27 05:31:36;;;;;;;30.08;13.65;;;;;;;2.86;77.14;100470.25;5069709;28;20104;-43
2022/12/27 05:34:04;;;;;;;29.38;13.07;;;;;;;2.49;76.95;100461.13;5069690;28;20028;-42
2022/12/27 05:36:29;;;;;;;24.25;13.00;;;;;;;2.97;91.81;100478.00;5070137;28;20039;-42
2022/12/27 05:38:55;;;;;;;31.33;15.85;;;;;;;3.08;77.29;100488.38;5069685;28;20154;-42
2022/12/27 05:41:20;;;;;;;32.90;15.35;;;;;;;3.16;76.98;100471.94;5069575;28;20439;-42
2022/12/27 05:43:46;;;;;;;32.28;16.10;;;;;;;3.08;78.80;100484.91;5070094;28;20051;-42
2022/12/27 05:46:14;;;;;;;32.92;17.73;;;;;;;3.47;78.31;100485.78;5069806;28;20030;-42
2022/12/27 05:48:40;;;;;;;38.50;20.92;;;;;;;3.88;77.33;100496.09;5069690;28;20029;-42
2022/12/27 05:51:12;;;;;;;56.38;28.42;;;;;;;3.80;83.51;100496.00;5073505;28;20549;-42
2022/12/27 05:53:38;;;;;;;35.03;20.00;;;;;;;3.33;81.92;100473.88;5073654;28;20067;-42
2022/12/27 05:56:04;;;;;;;28.13;15.63;;;;;;;2.95;82.54;100477.28;5073637;28;20020;-42
2022/12/27 05:58:30;;;;;;;27.27;14.02;;;;;;;2.35;83.47;100491.22;5073248;28;20533;-42
2022/12/27 06:00:56;;;;;;;27.92;14.90;;;;;;;2.06;85.59;100482.41;5073448;28;20029;-42
2022/12/27 06:03:21;;;;;;;33.25;16.90;;;;;;;2.20;88.63;100487.28;5073432;28;20073;-42
2022/12/27 06:05:47;;;;;;;37.58;17.88;;;;;;;3.22;85.21;100495.06;5073809;28;20089;-42
2022/12/27 06:08:12;;;;;;;28.63;14.75;;;;;;;3.05;86.74;100493.94;5072905;28;20392;-42
2022/12/27 06:10:38;;;;;;;25.73;13.52;;;;;;;3.42;86.35;100495.88;5073181;28;20031;-42
2022/12/27 06:13:04;;;;;;;29.00;13.70;;;;;;;3.18;83.78;100484.94;5072373;28;20476;-42
2022/12/27 06:15:29;;;;;;;27.55;14.52;;;;;;;3.17;83.06;100493.81;5072943;28;20037;-42
2022/12/27 06:17:56;;;;;;;24.90;13.63;;;;;;;3.35;83.95;100488.69;5072889;28;20033;-42
2022/12/27 06:20:22;;;;;;;24.90;14.00;;;;;;;3.43;82.11;100488.84;5068190;28;20040;-42
2022/12/27 06:22:47;;;;;;;26.17;14.00;;;;;;;3.43;82.95;100492.28;5054279;28;20037;-42
2022/12/27 06:25:13;;;;;;;23.42;13.35;;;;;;;3.67;83.00;100491.00;5052712;28;20377;-42
2022/12/27 06:27:38;;;;;;;28.25;14.27;;;;;;;3.68;81.27;100490.88;5053001;28;20025;-42
2022/12/27 06:30:06;;;;;;;23.98;14.07;;;;;;;3.90;79.33;100505.56;5052799;28;20044;-42
2022/12/27 06:32:32;;;;;;;23.88;13.38;;;;;;;3.99;78.45;100521.47;5062533;28;20519;-43
2022/12/27 06:34:57;;;;;;;26.25;12.82;;;;;;;4.67;81.98;100515.97;5068169;28;20151;-42
2022/12/27 06:37:23;;;;;;;26.08;12.68;;;;;;;5.09;79.10;100511.00;5052298;28;20115;-42
2022/12/27 06:39:48;;;;;;;36.25;17.58;;;;;;;5.08;76.66;100493.53;5064474;28;20028;-42
2022/12/27 06:42:13;;;;;;;29.48;14.35;;;;;;;5.01;74.85;100500.38;5072605;28;20081;-43
2022/12/27 06:44:39;;;;;;;31.15;14.75;;;;;;;4.77;75.90;100495.66;5070756;28;20388;-43
2022/12/27 06:47:04;;;;;;;39.67;20.88;;;;;;;4.58;75.18;100488.66;5072090;28;20024;-43
2022/12/27 06:49:30;;;;;;;31.98;16.73;;;;;;;4.90;75.38;100479.47;5069807;28;20071;-42
2022/12/27 06:51:55;;;;;;;38.65;20.50;;;;;;;4.83;77.21;100479.22;5072597;28;20029;-44
2022/12/27 06:54:21;;;;;;;36.90;20.33;;;;;;;6.15;72.55;100485.63;5070743;28;20117;-42
2022/12/27 06:56:46;;;;;;;88.65;47.58;;;;;;;6.00;71.18;100485.41;5071073;28;20486;-42
2022/12/27 06:59:12;;;;;;;79.38;38.97;;;;;;;5.52;71.92;100490.13;5071829;28;20027;-42
2022/12/27 07:01:38;;;;;;;72.30;37.03;;;;;;;5.53;73.04;100488.31;5057938;28;20029;-42
2022/12/27 07:04:04;;;;;;;58.20;29.80;;;;;;;5.67;72.51;100485.13;5053396;28;20029;-42
2022/12/27 07:06:30;;;;;;;55.55;28.13;;;;;;;5.99;71.37;100491.66;5062928;28;20465;-42
2022/12/27 07:08:57;;;;;;;58.35;30.38;;;;;;;6.27;69.84;100479.09;5052438;28;20047;-43
2022/12/27 07:11:23;;;;;;;63.85;32.83;;;;;;;6.48;68.62;100476.06;5052115;28;20033;-41
2022/12/27 07:13:50;;;;;;;57.08;31.83;;;;;;;6.02;69.46;100481.59;5065784;28;20031;-42
2022/12/27 07:16:19;;;;;;;61.22;33.67;;;;;;;6.44;69.23;100461.50;5071354;28;20032;-43
2022/12/27 07:18:45;;;;;;;60.83;32.30;;;;;;;6.92;69.39;100470.59;5071464;28;20055;-43
2022/12/27 07:21:13;;;;;;;55.35;29.17;;;;;;;7.10;66.44;100467.81;5071614;28;20032;-43
2022/12/27 07:23:39;;;;;;;50.60;26.40;;;;;;;7.01;65.73;100460.84;5070961;28;20388;-41
2022/12/27 07:26:08;;;;;;;37.35;21.95;;;;;;;6.77;66.98;100459.78;5070994;28;20028;-42
2022/12/27 07:28:34;;;;;;;34.65;19.58;;;;;;;7.21;67.86;100466.66;5070412;28;20027;-42
2022/12/27 07:31:14;;;;;;;36.13;20.13;;;;;;;7.18;67.87;100470.47;5070173;28;20111;-42
2022/12/27 07:33:40;;;;;;;37.40;21.33;;;;;;;7.47;66.91;100469.16;5070278;28;20271;-42
2022/12/27 07:36:09;;;;;;;41.78;20.50;;;;;;;8.04;64.64;100478.88;5070715;28;20025;-42
2022/12/27 07:38:34;;;;;;;36.42;20.25;;;;;;;8.35;63.91;100484.25;5070195;28;20029;-42
2022/12/27 07:41:00;;;;;;;40.95;21.83;;;;;;;8.34;64.13;100479.97;5069990;28;20035;-42
2022/12/27 07:43:29;;;;;;;40.35;22.45;;;;;;;9.41;64.42;100479.41;5063632;28;20040;-49
2022/12/27 07:46:05;;;;;;;35.17;20.42;;;;;;;10.61;62.15;100472.44;5049949;28;20031;-42
2022/12/27 07:48:31;;;;;;;49.35;27.38;;;;;;;11.40;57.55;100475.13;5049820;28;20029;-41
2022/12/27 07:50:56;;;;;;;33.47;16.40;;;;;;;12.10;55.09;100472.63;5069100;28;20025;-43
2022/12/27 07:53:22;;;;;;;23.60;13.20;;;;;;;12.55;49.99;100473.09;5069176;28;20177;-41
2022/12/27 07:55:49;;;;;;;21.50;12.93;;;;;;;12.32;50.22;100460.84;5070513;28;20390;-43
2022/12/27 07:58:15;;;;;;;24.45;13.05;;;;;;;12.18;51.63;100477.78;5070742;28;20040;-42
2022/12/27 08:00:41;;;;;;;21.65;12.82;;;;;;;12.38;51.60;100474.44;5070314;28;20040;-42
2022/12/27 08:03:06;;;;;;;26.50;14.30;;;;;;;12.36;51.05;100477.31;5069414;28;20029;-42
2022/12/27 08:05:31;;;;;;;20.45;13.07;;;;;;;13.05;49.32;100479.00;5067134;28;20487;-44
2022/12/27 08:08:00;;;;;;;21.83;11.55;;;;;;;13.40;47.48;100475.38;5068395;28;20028;-42
2022/12/27 08:10:26;;;;;;;22.40;11.80;;;;;;;13.52;47.58;100473.78;5068634;28;20162;-42
2022/12/27 08:12:51;;;;;;;20.88;13.82;;;;;;;13.73;47.43;100478.09;5068230;28;20028;-41
2022/12/27 08:15:17;;;;;;;23.15;13.20;;;;;;;13.69;47.37;100477.69;5069040;28;20157;-43
2022/12/27 08:17:42;;;;;;;20.33;12.77;;;;;;;13.53;47.28;100477.25;5065297;28;20395;-43
2022/12/27 08:20:13;;;;;;;19.63;12.07;;;;;;;13.59;48.16;100471.09;5069879;28;20542;-36
2022/12/27 08:22:39;;;;;;;19.70;12.80;;;;;;;13.99;46.89;100471.06;5069721;28;20056;-36
2022/12/27 08:25:05;;;;;;;30.35;13.73;;;;;;;14.24;45.86;100460.50;5068738;28;20044;-36
2022/12/27 08:27:30;;;;;;;52.17;31.17;;;;;;;14.05;46.22;100456.84;5069502;28;20166;-36
2022/12/27 08:29:56;;;;;;;30.05;15.93;;;;;;;13.96;46.28;100461.59;5069169;28;20107;-36
2022/12/27 08:32:21;;;;;;;33.45;19.10;;;;;;;14.16;46.02;100464.22;5069630;28;20028;-37
2022/12/27 08:34:47;;;;;;;43.17;27.15;;;;;;;14.12;45.33;100448.81;5069900;28;20028;-35
2022/12/27 08:37:14;;;;;;;23.02;15.05;;;;;;;14.51;45.67;100450.56;5068829;28;20032;-37
2022/12/27 08:39:40;;;;;;;23.10;13.98;;;;;;;14.89;44.37;100449.78;5069087;28;20025;-37
2022/12/27 08:42:05;;;;;;;25.77;14.02;;;;;;;14.42;45.96;100441.91;5068884;28;20036;-36
2022/12/27 08:44:31;;;;;;;23.63;13.88;;;;;;;14.70;45.93;100438.13;5068665;28;20035;-37
2022/12/27 08:46:56;;;;;;;23.10;14.43;;;;;;;15.10;44.22;100435.22;5067601;28;20473;-35
2022/12/27 08:49:21;;;;;;;25.52;14.50;;;;;;;15.40;42.61;100434.59;5068808;28;20028;-37
2022/12/27 08:51:47;;;;;;;27.35;14.70;;;;;;;15.24;42.86;100433.28;5069652;28;20032;-36
2022/12/27 08:54:12;;;;;;;23.73;15.25;;;;;;;15.07;44.01;100430.28;5068902;28;20036;-37
2022/12/27 08:56:38;;;;;;;37.08;24.55;;;;;;;15.46;44.12;100428.38;5069292;28;20028;-36
2022/12/27 08:59:03;;;;;;;24.23;13.98;;;;;;;15.83;41.85;100420.44;5068603;28;20047;-36
2022/12/27 09:01:28;;;;;;;20.45;13.18;;;;;;;15.93;41.80;100426.09;5068708;28;20543;-37
2022/12/27 09:03:54;;;;;;;20.60;13.20;;;;;;;15.13;42.91;100413.34;5068564;28;20031;-37
2022/12/27 09:06:21;;;;;;;25.90;14.60;;;;;;;14.54;44.98;100415.28;5068775;28;20032;-37
2022/12/27 09:08:48;;;;;;;22.63;13.82;;;;;;;15.02;44.81;100384.53;5068769;28;20024;-37
2022/12/27 09:11:19;;;;;;;23.27;14.15;;;;;;;14.76;44.46;100398.97;5069011;28;20056;-36
2022/12/27 09:13:45;;;;;;;25.10;15.32;;;;;;;14.64;44.43;100405.00;5068485;28;20036;-36
2022/12/27 09:16:13;;;;;;;29.42;15.85;;;;;;;13.98;46.14;100410.56;5068640;28;20033;-36
2022/12/27 09:18:41;;;;;;;28.30;16.93;;;;;;;14.06;46.40;100403.13;5068462;28;20501;-37
2022/12/27 09:21:12;;;;;;;23.85;15.02;;;;;;;14.44;45.41;100396.19;5068228;28;20450;-37
2022/12/27 09:23:39;;;;;;;25.40;15.75;;;;;;;14.02;45.68;100388.50;5068128;28;20021;-36
2022/12/27 09:26:07;;;;;;;28.50;17.83;;;;;;;13.06;48.38;100386.28;5072470;28;20025;-34
2022/12/27 09:28:34;;;;;;;24.85;17.20;;;;;;;14.16;46.88;100383.94;5072677;28;20024;-36
2022/12/27 09:31:00;;;;;;;28.25;17.80;;;;;;;14.85;45.22;100377.03;5073199;28;20028;-36
2022/12/27 09:33:27;;;;;;;30.75;17.23;;;;;;;13.88;47.20;100365.53;5073599;28;20056;-36
2022/12/27 09:35:59;;;;;;;25.40;16.27;;;;;;;14.17;46.54;100358.00;5073403;28;20066;-36
2022/12/27 09:38:24;;;;;;;30.92;16.63;;;;;;;14.73;45.25;100365.38;5073336;28;20091;-37
2022/12/27 09:40:55;;;;;;;24.55;15.05;;;;;;;14.40;46.04;100354.81;5073381;28;20028;-36
2022/12/27 09:43:43;;;;;;;25.60;15.75;;;;;;;14.35;46.41;100360.78;5073112;28;20130;-36
2022/12/27 09:46:16;;;;;;;22.67;13.40;;;;;;;14.84;44.41;100356.63;5072603;28;20477;-36
2022/12/27 09:48:42;;;;;;;20.10;12.45;;;;;;;14.63;45.69;100348.94;5073580;28;20473;-36
2022/12/27 09:51:34;;;;;;;20.38;11.88;;;;;;;14.70;44.62;100344.38;5073937;28;20028;-37
2022/12/27 09:54:09;;;;;;;18.92;11.38;;;;;;;15.42;45.55;100346.69;5064527;28;20051;-36
2022/12/27 09:56:35;;;;;;;24.40;16.45;;;;;;;15.20;43.85;100340.91;5073581;28;20031;-41
2022/12/27 09:59:12;;;;;;;37.42;20.98;;;;;;;15.15;44.32;100336.19;5073230;28;20020;-37
2022/12/27 10:01:43;;;;;;;21.35;12.80;;;;;;;15.56;43.06;100336.66;5073181;28;20157;-37
2022/12/27 10:04:12;;;;;;;17.38;11.32;;;;;;;15.20;44.16;100332.88;5072469;28;20086;-37
2022/12/27 10:06:37;;;;;;;20.83;11.75;;;;;;;14.99;45.37;100342.94;5072782;28;20020;-37
2022/12/27 10:09:19;;;;;;;24.27;14.07;;;;;;;15.78;42.79;100329.03;5072543;28;20024;-37
2022/12/27 10:11:59;;;;;;;31.30;20.20;;;;;;;15.21;43.86;100329.97;5073030;28;20029;-36
2022/12/27 10:14:47;;;;;;;;;;;;;;;15.55;43.79;100322.41;5072239;28;20024;-37
2022/12/27 10:17:12;;;;;;;23.75;15.32;;;;;;;16.41;42.13;100314.41;5070992;28;19919;-37
2022/12/27 10:20:21;;;;;;;27.33;15.48;;;;;;;15.63;43.31;100322.16;5071610;28;20044;-37
2022/12/27 10:23:11;;;;;;;31.23;16.13;;;;;;;16.22;43.09;100319.84;5071886;28;20032;-35
2022/12/27 10:25:38;;;;;;;35.57;17.60;;;;;;;16.04;42.25;100311.81;5070489;28;20746;-38
2022/12/27 10:28:16;;;;;;;25.67;16.60;;;;;;;15.41;43.10;100307.53;5070961;28;20480;-36
2022/12/27 10:30:42;;;;;;;25.95;16.67;;;;;;;15.88;42.99;100305.19;5070975;28;20028;-35
2022/12/27 10:33:24;;;;;;;26.92;17.10;;;;;;;16.75;43.81;100291.41;5071213;28;20130;-36
2022/12/27 10:35:50;;;;;;;26.98;16.65;;;;;;;17.27;40.85;100298.00;5069687;28;20028;-36
2022/12/27 10:38:15;;;;;;;27.10;17.13;;;;;;;16.99;40.65;100292.25;5070884;28;20130;-36
2022/12/27 10:41:15;;;;;;;26.42;16.85;;;;;;;17.27;41.45;100293.47;5070816;28;20024;-37
2022/12/27 10:43:43;;;;;;;27.63;14.73;;;;;;;17.90;39.71;100289.19;5071130;28;20109;-36
2022/12/27 10:46:19;;;;;;;28.48;14.88;;;;;;;18.05;39.46;100279.75;5070409;28;20036;-36
2022/12/27 10:48:55;;;;;;;21.67;13.18;;;;;;;18.39;38.12;100283.38;5070738;28;20024;-35
2022/12/27 10:51:22;;;;;;;22.48;13.77;;;;;;;18.49;38.40;100266.56;5070794;28;20561;-36
2022/12/27 10:53:48;;;;;;;20.85;11.93;;;;;;;18.43;37.96;100259.44;5070615;28;20032;-36
2022/12/27 10:56:31;;;;;;;20.52;12.68;;;;;;;18.49;37.71;100256.59;5070146;28;20036;-36
2022/12/27 10:59:19;;;;;;;22.40;12.32;;;;;;;18.17;38.53;100253.59;5070557;28;20485;-37
2022/12/27 11:01:48;;;;;;;20.33;13.32;;;;;;;17.33;39.62;100254.03;5070600;28;20033;-36
2022/12/27 11:04:21;;;;;;;24.40;13.75;;;;;;;16.54;41.02;100254.31;5070108;28;20115;-36
2022/12/27 11:06:50;;;;;;;24.30;14.25;;;;;;;16.78;41.91;100250.59;5070053;28;20028;-37
2022/12/27 11:09:25;;;;;;;24.48;14.32;;;;;;;16.72;41.69;100243.47;5069883;28;20048;-36
2022/12/27 11:11:51;;;;;;;22.52;14.68;;;;;;;17.55;40.18;100238.91;5070438;28;20044;-37
2022/12/27 11:14:19;;;;;;;29.30;14.70;;;;;;;17.77;39.65;100228.31;5069728;28;20032;-37
2022/12/27 11:16:47;;;;;;;25.30;14.30;;;;;;;17.93;39.38;100236.72;5070337;28;20017;-37
2022/12/27 11:19:22;;;;;;;21.30;13.98;;;;;;;18.02;40.12;100240.66;5069719;28;20052;-37
2022/12/27 11:21:48;;;;;;;23.30;13.75;;;;;;;18.14;39.76;100238.75;5069726;28;20100;-36
2022/12/27 11:24:16;;;;;;;23.30;13.90;;;;;;;17.87;39.69;100241.19;5069664;28;20089;-37
2022/12/27 11:26:52;;;;;;;26.98;14.00;;;;;;;17.51;40.70;100231.53;5070058;28;20048;-36
2022/12/27 11:29:19;;;;;;;22.45;13.40;;;;;;;18.03;39.63;100223.47;5069767;28;20025;-38
2022/12/27 11:31:47;;;;;;;26.38;13.50;;;;;;;18.41;39.08;100207.66;5070336;28;20162;-36
2022/12/27 11:34:27;;;;;;;26.90;13.15;;;;;;;18.88;38.06;100210.06;5068347;28;20101;-37
2022/12/27 11:37:00;;;;;;;20.98;12.18;;;;;;;18.91;38.70;100215.78;5069441;28;20029;-37
2022/12/27 11:39:50;;;;;;;20.67;12.73;;;;;;;19.30;38.83;100214.97;5069244;28;20025;-37
2022/12/27 11:42:37;;;;;;;21.77;11.53;;;;;;;18.67;38.92;100212.41;5069920;28;20032;-37
2022/12/27 11:45:16;;;;;;;23.63;11.48;;;;;;;18.00;40.44;100205.09;5049262;28;20481;-37
2022/12/27 11:48:03;;;;;;;23.60;11.27;;;;;;;19.00;39.35;100208.09;5049085;28;20021;-38
2022/12/27 11:51:14;;;;;;;21.80;11.43;;;;;;;19.36;38.49;100203.16;5049130;28;20147;-37
2022/12/27 11:53:39;;;;;;;27.17;14.35;;;;;;;18.61;38.85;100199.94;5049125;28;20025;-37
2022/12/27 11:56:20;;;;;;;22.02;12.50;;;;;;;17.96;40.62;100191.28;5049421;28;20028;-37
2022/12/27 11:59:01;;;;;;;27.40;11.93;;;;;;;18.60;39.44;100205.56;5049370;28;20021;-37
2022/12/27 12:02:00;;;;;;;21.00;12.02;;;;;;;19.05;38.73;100207.34;5049001;28;20028;-36
2022/12/27 12:05:05;;;;;;;18.38;11.27;;;;;;;18.56;40.02;100205.22;5049082;28;20327;-36
2022/12/27 12:08:27;;;;;;;121.57;67.38;;;;;;;18.43;40.89;100200.16;5048979;28;20086;-37
2022/12/27 12:11:18;;;;;;;24.80;14.90;;;;;;;19.22;39.42;100197.34;5039057;28;20067;-36
2022/12/27 12:14:00;;;;;;;23.85;12.05;;;;;;;18.73;39.92;100197.97;5046286;28;20040;-37
2022/12/27 12:16:31;;;;;;;19.55;11.50;;;;;;;18.64;40.78;100190.53;5048234;28;20037;-36
2022/12/27 12:19:23;;;;;;;15.10;9.25;;;;;;;19.27;39.94;100192.00;5048477;28;20429;-37
2022/12/27 12:21:57;;;;;;;19.15;10.20;;;;;;;19.92;38.33;100187.66;5024827;28;20060;-36
2022/12/27 12:24:50;;;;;;;19.73;10.55;;;;;;;19.13;39.76;100199.66;5048375;28;20052;-37
2022/12/27 12:27:33;;;;;;;20.80;9.23;;;;;;;19.02;40.45;100195.19;5048707;28;20024;-35
2022/12/27 12:30:25;;;;;;;19.15;11.35;;;;;;;19.52;38.71;100194.19;5048416;28;20156;-36
2022/12/27 12:33:02;;;;;;;22.63;12.13;;;;;;;19.43;38.97;100205.69;5048472;28;20157;-35
2022/12/27 12:35:31;;;;;;;29.30;13.98;;;;;;;18.90;40.25;100203.34;5048159;28;20119;-35
2022/12/27 12:38:04;;;;;;;29.50;15.13;;;;;;;18.93;40.21;100202.88;5048398;28;20057;-37
2022/12/27 12:40:44;;;;;;;25.52;13.93;;;;;;;19.51;39.19;100206.09;5048415;28;20562;-37
2022/12/27 12:43:28;;;;;;;14.32;9.60;;;;;;;19.10;39.08;100208.25;5053395;28;20023;-36
2022/12/27 12:45:56;;;;;;;20.25;10.52;;;;;;;18.24;40.53;100161.84;5067988;28;20028;-36
2022/12/27 12:48:44;;;;;;;16.08;8.80;;;;;;;18.97;40.87;100213.97;5067992;28;20111;-36
2022/12/27 12:51:17;;;;;;;15.80;9.50;;;;;;;20.01;38.41;100219.59;5049842;28;20104;-35
2022/12/27 12:53:49;;;;;;;16.35;9.45;;;;;;;20.03;38.33;100204.78;5047952;28;20032;-36
2022/12/27 12:56:57;;;;;;;19.20;9.55;;;;;;;19.67;38.65;100214.38;5048216;28;20036;-42
2022/12/27 12:59:54;;;;;;;12.00;7.25;;;;;;;19.72;38.89;100215.28;5047685;28;20218;-41
2022/12/27 13:03:03;;;;;;;9.98;5.07;;;;;;;19.22;39.13;100210.81;5047821;28;20025;-42
2022/12/27 13:05:43;;;;;;;9.55;5.93;;;;;;;18.87;40.33;100211.16;5047845;28;20024;-42
2022/12/27 13:08:31;;;;;;;9.35;6.53;;;;;;;19.33;39.45;100222.56;5048072;28;20036;-40
2022/12/27 13:11:23;;;;;;;10.13;5.43;;;;;;;19.51;39.03;100211.47;5061929;28;20023;-42
2022/12/27 13:14:18;;;;;;;10.38;5.13;;;;;;;19.47;39.25;100221.13;5068347;28;20025;-41
2022/12/27 13:16:58;;;;;;;48.25;31.58;;;;;;;19.12;40.14;100219.59;5068171;28;20117;-42